sensor_id;sensor_type;location;lat;lon;timestamp;pressure;altitude;pressure_sealevel;temperature;humidity
59971;BME280;45825;45.434;9.116;2023-04-01T00:01:57;99266.38;;;10.30;100.00
59971;BME280;45825;45.434;9.116;2023-04-01T00:04:22;99266.88;;;10.35;100.00
59971;BME280;45825;45.434;9.116;2023-04-01T00:06:48;99275.13;;;10.43;100.00
59971;BME280;45825;45.434;9.116;2023-04-01T00:09:13;99270.66;;;10.44;100.00
59971;BME280;45825;45.434;9.116;2023-04-01T00:11:39;99263.28;;;10.62;100.00
59971;BME280;45825;45.434;9.116;2023-04-01T00:14:05;99263.34;;;10.73;100.00
59971;BME280;45825;45.434;9.116;2023-04-01T00:16:31;99268.66;;;10.60;100.00
59971;BME280;45825;45.434;9.116;2023-04-01T00:18:56;99265.59;;;10.41;100.00
59971;BME280;45825;45.434;9.116;2023-04-01T00:21:22;99262.81;;;10.18;100.00
59971;BME280;45825;45.434;9.116;2023-04-01T00:23:49;99251.75;;;10.26;100.00
59971;BME280;45825;45.434;9.116;2023-04-01T00:26:14;99247.13;;;10.16;100.00
59971;BME280;45825;45.434;9.116;2023-04-01T00:28:44;99249.97;;;10.13;100.00
59971;BME280;45825;45.434;9.116;2023-04-01T00:31:10;99259.97;;;10.21;100.00
59971;BME280;45825;45.434;9.116;2023-04-01T00:33:35;99255.97;;;10.28;100.00
59971;BME280;45825;45.434;9.116;2023-04-01T00:36:12;99249.09;;;10.39;100.00
59971;BME280;45825;45.434;9.116;2023-04-01T00:38:38;99246.25;;;10.55;100.00
59971;BME280;45825;45.434;9.116;2023-04-01T00:41:04;99248.84;;;10.68;100.00
59971;BME280;45825;45.434;9.116;2023-04-01T00:43:31;99252.66;;;10.51;100.00
59971;BME280;45825;45.434;9.116;2023-04-01T00:45:56;99249.25;;;10.24;100.00
59971;BME280;45825;45.434;9.116;2023-04-01T00:48:25;99253.56;;;10.25;100.00
59971;BME280;45825;45.434;9.116;2023-04-01T00:50:58;99253.50;;;10.38;100.00
59971;BME280;45825;45.434;9.116;2023-04-01T00:53:25;99246.75;;;10.60;99.32
59971;BME280;45825;45.434;9.116;2023-04-01T00:56:01;99241.88;;;10.67;97.58
59971;BME280;45825;45.434;9.116;2023-04-01T00:58:31;99234.94;;;10.28;100.00
59971;BME280;45825;45.434;9.116;2023-04-01T01:00:59;99232.31;;;10.41;100.00
59971;BME280;45825;45.434;9.116;2023-04-01T01:03:25;99230.63;;;10.14;100.00
59971;BME280;45825;45.434;9.116;2023-04-01T01:08:38;99240.75;;;9.95;100.00
59971;BME280;45825;45.434;9.116;2023-04-01T01:11:08;99226.88;;;10.05;100.00
59971;BME280;45825;45.434;9.116;2023-04-01T01:13:48;99242.66;;;9.67;100.00
59971;BME280;45825;45.434;9.116;2023-04-01T01:16:27;99243.69;;;9.64;100.00
59971;BME280;45825;45.434;9.116;2023-04-01T01:27:05;99251.72;;;9.22;100.00
59971;BME280;45825;45.434;9.116;2023-04-01T01:30:10;99246.06;;;9.28;100.00
59971;BME280;45825;45.434;9.116;2023-04-01T01:38:12;99244.91;;;9.32;100.00
59971;BME280;45825;45.434;9.116;2023-04-01T01:40:41;99252.81;;;9.45;100.00
59971;BME280;45825;45.434;9.116;2023-04-01T01:43:12;99253.09;;;9.41;100.00
59971;BME280;45825;45.434;9.116;2023-04-01T01:45:43;99248.78;;;9.27;100.00
59971;BME280;45825;45.434;9.116;2023-04-01T01:48:10;99251.66;;;9.49;100.00
59971;BME280;45825;45.434;9.116;2023-04-01T01:50:37;99254.09;;;9.53;100.00
59971;BME280;45825;45.434;9.116;2023-04-01T01:53:09;99249.22;;;9.46;100.00
59971;BME280;45825;45.434;9.116;2023-04-01T01:55:37;99236.16;;;9.19;100.00
59971;BME280;45825;45.434;9.116;2023-04-01T01:58:18;99233.53;;;9.19;100.00
59971;BME280;45825;45.434;9.116;2023-04-01T02:00:54;99230.31;;;9.41;100.00
59971;BME280;45825;45.434;9.116;2023-04-01T02:03:23;99222.34;;;9.43;100.00
59971;BME280;45825;45.434;9.116;2023-04-01T02:05:52;99230.72;;;9.35;100.00
59971;BME280;45825;45.434;9.116;2023-04-01T02:08:29;99225.91;;;9.29;100.00
59971;BME280;45825;45.434;9.116;2023-04-01T02:11:00;99231.53;;;9.22;100.00
59971;BME280;45825;45.434;9.116;2023-04-01T02:13:37;99234.09;;;9.24;100.00
59971;BME280;45825;45.434;9.116;2023-04-01T02:16:09;99229.78;;;9.23;100.00
59971;BME280;45825;45.434;9.116;2023-04-01T02:18:36;99231.47;;;9.24;100.00
59971;BME280;45825;45.434;9.116;2023-04-01T02:21:04;99224.91;;;9.17;100.00
59971;BME280;45825;45.434;9.116;2023-04-01T02:23:33;99235.03;;;9.23;100.00
59971;BME280;45825;45.434;9.116;2023-04-01T02:26:00;99235.97;;;9.35;100.00
59971;BME280;45825;45.434;9.116;2023-04-01T02:28:26;99236.19;;;9.32;100.00
59971;BME280;45825;45.434;9.116;2023-04-01T02:30:53;99234.13;;;9.63;100.00
59971;BME280;45825;45.434;9.116;2023-04-01T02:33:19;99233.41;;;9.61;100.00
59971;BME280;45825;45.434;9.116;2023-04-01T02:35:46;99237.47;;;9.52;100.00
59971;BME280;45825;45.434;9.116;2023-04-01T02:38:12;99242.31;;;9.45;100.00
59971;BME280;45825;45.434;9.116;2023-04-01T02:40:46;99236.41;;;9.29;100.00
59971;BME280;45825;45.434;9.116;2023-04-01T02:43:11;99230.44;;;9.53;100.00
59971;BME280;45825;45.434;9.116;2023-04-01T02:45:37;99233.69;;;9.69;100.00
59971;BME280;45825;45.434;9.116;2023-04-01T02:48:02;99241.16;;;9.62;100.00
59971;BME280;45825;45.434;9.116;2023-04-01T02:50:28;99242.84;;;9.50;100.00
59971;BME280;45825;45.434;9.116;2023-04-01T02:52:53;99248.59;;;9.43;100.00
59971;BME280;45825;45.434;9.116;2023-04-01T02:55:18;99252.88;;;9.31;100.00
59971;BME280;45825;45.434;9.116;2023-04-01T02:57:43;99253.09;;;9.28;100.00
59971;BME280;45825;45.434;9.116;2023-04-01T03:00:09;99253.53;;;9.34;100.00
59971;BME280;45825;45.434;9.116;2023-04-01T03:02:37;99248.84;;;9.12;100.00
59971;BME280;45825;45.434;9.116;2023-04-01T03:05:03;99242.09;;;9.35;100.00
59971;BME280;45825;45.434;9.116;2023-04-01T03:07:29;99237.47;;;9.52;100.00
59971;BME280;45825;45.434;9.116;2023-04-01T03:09:54;99237.59;;;9.63;100.00
59971;BME280;45825;45.434;9.116;2023-04-01T03:12:20;99243.66;;;9.38;100.00
59971;BME280;45825;45.434;9.116;2023-04-01T03:14:45;99241.81;;;9.13;100.00
59971;BME280;45825;45.434;9.116;2023-04-01T03:17:10;99236.22;;;9.04;100.00
59971;BME280;45825;45.434;9.116;2023-04-01T03:19:36;99238.19;;;9.28;100.00
59971;BME280;45825;45.434;9.116;2023-04-01T03:22:01;99238.41;;;9.38;100.00
59971;BME280;45825;45.434;9.116;2023-04-01T03:24:26;99236.63;;;9.39;100.00
59971;BME280;45825;45.434;9.116;2023-04-01T03:26:51;99232.34;;;9.50;100.00
59971;BME280;45825;45.434;9.116;2023-04-01T03:29:17;99246.53;;;9.07;100.00
59971;BME280;45825;45.434;9.116;2023-04-01T03:31:42;99250.44;;;9.15;100.00
59971;BME280;45825;45.434;9.116;2023-04-01T03:34:08;99250.78;;;9.36;100.00
59971;BME280;45825;45.434;9.116;2023-04-01T03:36:34;99249.47;;;9.56;100.00
59971;BME280;45825;45.434;9.116;2023-04-01T03:38:59;99246.41;;;9.49;100.00
59971;BME280;45825;45.434;9.116;2023-04-01T03:41:24;99257.88;;;9.48;100.00
59971;BME280;45825;45.434;9.116;2023-04-01T03:43:50;99267.34;;;9.77;100.00
59971;BME280;45825;45.434;9.116;2023-04-01T03:46:19;99266.72;;;9.99;100.00
59971;BME280;45825;45.434;9.116;2023-04-01T03:48:45;99281.53;;;10.00;100.00
59971;BME280;45825;45.434;9.116;2023-04-01T03:51:10;99282.38;;;9.88;100.00
59971;BME280;45825;45.434;9.116;2023-04-01T03:53:36;99278.31;;;9.43;100.00
59971;BME280;45825;45.434;9.116;2023-04-01T03:56:07;99280.53;;;9.09;100.00
59971;BME280;45825;45.434;9.116;2023-04-01T03:58:34;99273.25;;;9.27;100.00
59971;BME280;45825;45.434;9.116;2023-04-01T04:01:00;99275.31;;;9.49;100.00
59971;BME280;45825;45.434;9.116;2023-04-01T04:03:25;99279.41;;;9.13;100.00
59971;BME280;45825;45.434;9.116;2023-04-01T04:05:51;99286.16;;;9.17;100.00
59971;BME280;45825;45.434;9.116;2023-04-01T04:08:16;99284.78;;;9.65;100.00
59971;BME280;45825;45.434;9.116;2023-04-01T04:10:42;99293.59;;;9.23;100.00
59971;BME280;45825;45.434;9.116;2023-04-01T04:13:08;99292.00;;;9.21;100.00
59971;BME280;45825;45.434;9.116;2023-04-01T04:15:33;99288.84;;;9.43;100.00
59971;BME280;45825;45.434;9.116;2023-04-01T04:17:58;99295.16;;;9.54;100.00
59971;BME280;45825;45.434;9.116;2023-04-01T04:20:24;99291.72;;;8.98;100.00
59971;BME280;45825;45.434;9.116;2023-04-01T04:22:49;99294.81;;;9.05;100.00
59971;BME280;45825;45.434;9.116;2023-04-01T04:25:14;99287.22;;;9.28;100.00
59971;BME280;45825;45.434;9.116;2023-04-01T04:27:40;99289.09;;;9.26;100.00
59971;BME280;45825;45.434;9.116;2023-04-01T04:30:06;99289.81;;;9.55;100.00
59971;BME280;45825;45.434;9.116;2023-04-01T04:32:33;99287.38;;;9.39;100.00
59971;BME280;45825;45.434;9.116;2023-04-01T04:34:58;99279.34;;;9.28;100.00
59971;BME280;45825;45.434;9.116;2023-04-01T04:37:23;99281.81;;;9.44;100.00
59971;BME280;45825;45.434;9.116;2023-04-01T04:39:48;99279.81;;;9.07;100.00
59971;BME280;45825;45.434;9.116;2023-04-01T04:42:14;99272.41;;;8.99;100.00
59971;BME280;45825;45.434;9.116;2023-04-01T04:44:40;99287.69;;;8.65;100.00
59971;BME280;45825;45.434;9.116;2023-04-01T04:47:06;99283.34;;;8.51;100.00
59971;BME280;45825;45.434;9.116;2023-04-01T04:49:31;99288.19;;;8.57;100.00
59971;BME280;45825;45.434;9.116;2023-04-01T04:51:56;99284.81;;;8.41;100.00
59971;BME280;45825;45.434;9.116;2023-04-01T04:54:22;99281.03;;;8.74;100.00
59971;BME280;45825;45.434;9.116;2023-04-01T04:56:47;99287.91;;;8.89;100.00
59971;BME280;45825;45.434;9.116;2023-04-01T04:59:12;99291.56;;;9.14;100.00
59971;BME280;45825;45.434;9.116;2023-04-01T05:01:38;99290.78;;;8.99;100.00
59971;BME280;45825;45.434;9.116;2023-04-01T05:04:03;99290.47;;;9.04;100.00
59971;BME280;45825;45.434;9.116;2023-04-01T05:06:28;99299.50;;;9.27;100.00
59971;BME280;45825;45.434;9.116;2023-04-01T05:08:57;99292.19;;;9.32;100.00
59971;BME280;45825;45.434;9.116;2023-04-01T05:11:22;99293.22;;;9.43;98.57
59971;BME280;45825;45.434;9.116;2023-04-01T05:13:48;99293.75;;;9.07;99.13
59971;BME280;45825;45.434;9.116;2023-04-01T05:16:18;99291.56;;;8.87;100.00
59971;BME280;45825;45.434;9.116;2023-04-01T05:18:44;99287.47;;;8.83;100.00
59971;BME280;45825;45.434;9.116;2023-04-01T05:21:12;99281.53;;;8.51;100.00
59971;BME280;45825;45.434;9.116;2023-04-01T05:23:38;99282.19;;;8.55;100.00
59971;BME280;45825;45.434;9.116;2023-04-01T05:26:05;99288.13;;;8.72;100.00
59971;BME280;45825;45.434;9.116;2023-04-01T05:28:31;99295.44;;;8.81;100.00
59971;BME280;45825;45.434;9.116;2023-04-01T05:30:58;99295.28;;;8.97;100.00
59971;BME280;45825;45.434;9.116;2023-04-01T05:33:24;99304.59;;;9.16;98.67
59971;BME280;45825;45.434;9.116;2023-04-01T05:35:49;99305.03;;;8.95;99.59
59971;BME280;45825;45.434;9.116;2023-04-01T05:38:16;99305.25;;;8.92;100.00
59971;BME280;45825;45.434;9.116;2023-04-01T05:40:41;99309.47;;;9.22;97.03
59971;BME280;45825;45.434;9.116;2023-04-01T05:43:07;99307.31;;;9.42;94.98
59971;BME280;45825;45.434;9.116;2023-04-01T05:45:32;99313.00;;;9.21;95.58
59971;BME280;45825;45.434;9.116;2023-04-01T05:47:58;99323.41;;;8.95;96.99
59971;BME280;45825;45.434;9.116;2023-04-01T05:50:25;99327.47;;;8.86;98.10
59971;BME280;45825;45.434;9.116;2023-04-01T05:52:51;99320.84;;;9.08;96.19
59971;BME280;45825;45.434;9.116;2023-04-01T05:55:17;99328.44;;;9.13;95.02
59971;BME280;45825;45.434;9.116;2023-04-01T05:57:44;99337.69;;;8.91;96.49
59971;BME280;45825;45.434;9.116;2023-04-01T06:00:10;99330.41;;;9.09;95.21
59971;BME280;45825;45.434;9.116;2023-04-01T06:02:36;99333.84;;;9.24;93.60
59971;BME280;45825;45.434;9.116;2023-04-01T06:05:21;99332.59;;;8.88;96.71
59971;BME280;45825;45.434;9.116;2023-04-01T06:07:47;99331.00;;;9.00;95.01
59971;BME280;45825;45.434;9.116;2023-04-01T06:10:20;99338.47;;;8.78;95.82
59971;BME280;45825;45.434;9.116;2023-04-01T06:13:21;99348.88;;;9.07;93.60
59971;BME280;45825;45.434;9.116;2023-04-01T06:16:04;99351.53;;;8.93;94.35
59971;BME280;45825;45.434;9.116;2023-04-01T06:21:33;99347.22;;;8.77;94.49
59971;BME280;45825;45.434;9.116;2023-04-01T06:26:37;99355.41;;;8.73;95.18
59971;BME280;45825;45.434;9.116;2023-04-01T06:46:57;99335.66;;;9.09;90.20
59971;BME280;45825;45.434;9.116;2023-04-01T06:52:13;99325.28;;;9.48;87.75
59971;BME280;45825;45.434;9.116;2023-04-01T06:54:44;99334.94;;;9.47;86.07
59971;BME280;45825;45.434;9.116;2023-04-01T06:57:32;99343.38;;;9.53;84.66
59971;BME280;45825;45.434;9.116;2023-04-01T07:00:03;99341.91;;;9.48;82.73
59971;BME280;45825;45.434;9.116;2023-04-01T07:02:39;99342.25;;;9.70;82.31
59971;BME280;45825;45.434;9.116;2023-04-01T07:05:06;99342.59;;;9.91;80.71
59971;BME280;45825;45.434;9.116;2023-04-01T07:07:41;99345.97;;;9.93;78.66
59971;BME280;45825;45.434;9.116;2023-04-01T07:10:14;99341.34;;;10.10;77.34
59971;BME280;45825;45.434;9.116;2023-04-01T07:12:54;99339.88;;;10.05;76.47
59971;BME280;45825;45.434;9.116;2023-04-01T07:15:30;99349.47;;;10.19;76.18
59971;BME280;45825;45.434;9.116;2023-04-01T07:18:11;99356.50;;;10.45;75.24
59971;BME280;45825;45.434;9.116;2023-04-01T07:20:38;99354.00;;;10.43;73.68
59971;BME280;45825;45.434;9.116;2023-04-01T07:23:08;99347.16;;;10.54;73.85
59971;BME280;45825;45.434;9.116;2023-04-01T07:25:38;99359.59;;;10.52;74.69
59971;BME280;45825;45.434;9.116;2023-04-01T07:28:12;99363.53;;;10.70;73.58
59971;BME280;45825;45.434;9.116;2023-04-01T07:33:20;99354.91;;;10.81;72.30
59971;BME280;45825;45.434;9.116;2023-04-01T07:35:51;99361.47;;;11.00;70.46
59971;BME280;45825;45.434;9.116;2023-04-01T07:38:54;99351.09;;;11.23;69.79
59971;BME280;45825;45.434;9.116;2023-04-01T07:54:30;99365.81;;;11.50;71.52
59971;BME280;45825;45.434;9.116;2023-04-01T08:02:50;99372.63;;;11.77;71.51
59971;BME280;45825;45.434;9.116;2023-04-01T08:05:26;99364.13;;;11.73;71.04
59971;BME280;45825;45.434;9.116;2023-04-01T08:08:17;99356.03;;;11.99;70.87
59971;BME280;45825;45.434;9.116;2023-04-01T08:13:24;99339.91;;;12.15;69.00
59971;BME280;45825;45.434;9.116;2023-04-01T08:16:08;99348.53;;;12.17;67.61
59971;BME280;45825;45.434;9.116;2023-04-01T08:18:41;99355.13;;;12.23;65.84
59971;BME280;45825;45.434;9.116;2023-04-01T08:21:21;99355.28;;;12.21;65.63
59971;BME280;45825;45.434;9.116;2023-04-01T08:23:51;99363.31;;;12.42;65.47
59971;BME280;45825;45.434;9.116;2023-04-01T08:29:01;99358.66;;;12.57;64.65
59971;BME280;45825;45.434;9.116;2023-04-01T08:31:37;99369.91;;;12.60;64.65
59971;BME280;45825;45.434;9.116;2023-04-01T08:34:10;99369.81;;;12.73;64.79
59971;BME280;45825;45.434;9.116;2023-04-01T08:36:46;99369.19;;;12.92;65.07
59971;BME280;45825;45.434;9.116;2023-04-01T08:39:18;99366.66;;;13.02;67.01
59971;BME280;45825;45.434;9.116;2023-04-01T08:44:59;99370.94;;;13.14;65.10
59971;BME280;45825;45.434;9.116;2023-04-01T08:47:42;99360.59;;;13.11;64.78
59971;BME280;45825;45.434;9.116;2023-04-01T08:50:39;99353.63;;;13.21;66.00
59971;BME280;45825;45.434;9.116;2023-04-01T08:53:12;99357.19;;;13.32;66.06
59971;BME280;45825;45.434;9.116;2023-04-01T08:58:46;99364.25;;;13.43;66.58
59971;BME280;45825;45.434;9.116;2023-04-01T09:06:38;99353.56;;;13.77;64.91
59971;BME280;45825;45.434;9.116;2023-04-01T09:09:28;99355.06;;;13.91;64.96
59971;BME280;45825;45.434;9.116;2023-04-01T09:12:22;99346.22;;;14.02;63.99
59971;BME280;45825;45.434;9.116;2023-04-01T09:18:03;99346.72;;;14.17;61.83
59971;BME280;45825;45.434;9.116;2023-04-01T09:26:24;99363.06;;;14.53;61.66
59971;BME280;45825;45.434;9.116;2023-04-01T09:37:20;99352.63;;;14.92;61.43
59971;BME280;45825;45.434;9.116;2023-04-01T09:40:09;99353.22;;;15.06;61.70
59971;BME280;45825;45.434;9.116;2023-04-01T09:45:21;99362.34;;;15.43;60.02
59971;BME280;45825;45.434;9.116;2023-04-01T09:48:08;99363.59;;;15.68;59.16
59971;BME280;45825;45.434;9.116;2023-04-01T09:50:52;99367.94;;;15.79;58.30
59971;BME280;45825;45.434;9.116;2023-04-01T10:01:57;99368.44;;;16.22;57.06
59971;BME280;45825;45.434;9.116;2023-04-01T10:13:36;99359.38;;;17.37;50.32
59971;BME280;45825;45.434;9.116;2023-04-01T10:19:20;99347.34;;;18.32;49.13
59971;BME280;45825;45.434;9.116;2023-04-01T10:24:49;99336.91;;;19.49;44.80
59971;BME280;45825;45.434;9.116;2023-04-01T10:30:28;99334.22;;;20.16;40.85
59971;BME280;45825;45.434;9.116;2023-04-01T11:06:59;99291.59;;;25.13;30.24
59971;BME280;45825;45.434;9.116;2023-04-01T11:15:06;99298.19;;;24.90;27.37
59971;BME280;45825;45.434;9.116;2023-04-01T11:18:02;99286.81;;;25.01;26.50
59971;BME280;45825;45.434;9.116;2023-04-01T11:23:16;99282.50;;;25.41;24.65
59971;BME280;45825;45.434;9.116;2023-04-01T11:33:48;99276.97;;;24.73;25.00
59971;BME280;45825;45.434;9.116;2023-04-01T11:36:40;99274.59;;;26.13;25.36
59971;BME280;45825;45.434;9.116;2023-04-01T11:39:17;99270.94;;;25.53;22.48
59971;BME280;45825;45.434;9.116;2023-04-01T11:42:05;99266.53;;;26.72;21.15
59971;BME280;45825;45.434;9.116;2023-04-01T11:44:39;99256.00;;;29.15;19.48
59971;BME280;45825;45.434;9.116;2023-04-01T12:01:22;99240.22;;;28.81;17.77
59971;BME280;45825;45.434;9.116;2023-04-01T12:09:56;99236.09;;;30.29;17.12
59971;BME280;45825;45.434;9.116;2023-04-01T12:18:33;99234.56;;;31.76;15.42
59971;BME280;45825;45.434;9.116;2023-04-01T12:21:22;99220.28;;;30.96;15.13
59971;BME280;45825;45.434;9.116;2023-04-01T12:29:49;99209.47;;;31.18;14.52
59971;BME280;45825;45.434;9.116;2023-04-01T12:33:04;99206.88;;;31.40;14.06
59971;BME280;45825;45.434;9.116;2023-04-01T12:35:55;99202.47;;;32.40;13.95
59971;BME280;45825;45.434;9.116;2023-04-01T12:47:27;99198.94;;;32.40;13.12
59971;BME280;45825;45.434;9.116;2023-04-01T12:50:37;99200.88;;;31.77;13.24
59971;BME280;45825;45.434;9.116;2023-04-01T12:56:14;99190.88;;;31.61;13.76
59971;BME280;45825;45.434;9.116;2023-04-01T13:04:44;99175.41;;;29.53;14.52
59971;BME280;45825;45.434;9.116;2023-04-01T13:07:36;99171.16;;;28.67;14.76
59971;BME280;45825;45.434;9.116;2023-04-01T13:13:10;99179.22;;;30.92;14.20
59971;BME280;45825;45.434;9.116;2023-04-01T13:15:45;99179.13;;;31.77;14.32
59971;BME280;45825;45.434;9.116;2023-04-01T13:18:36;99185.38;;;28.62;14.73
59971;BME280;45825;45.434;9.116;2023-04-01T13:26:54;99171.16;;;26.92;16.70
59971;BME280;45825;45.434;9.116;2023-04-01T13:29:31;99174.16;;;26.45;16.84
59971;BME280;45825;45.434;9.116;2023-04-01T13:41:04;99155.66;;;25.96;17.92
59971;BME280;45825;45.434;9.116;2023-04-01T13:43:31;99153.72;;;25.37;18.36
59971;BME280;45825;45.434;9.116;2023-04-01T13:46:22;99155.16;;;24.66;18.77
59971;BME280;45825;45.434;9.116;2023-04-01T13:57:03;99144.31;;;24.25;19.44
59971;BME280;45825;45.434;9.116;2023-04-01T14:04:49;99142.47;;;23.91;19.71
59971;BME280;45825;45.434;9.116;2023-04-01T14:07:27;99133.97;;;22.66;20.46
59971;BME280;45825;45.434;9.116;2023-04-01T14:10:22;99132.63;;;22.77;20.92
59971;BME280;45825;45.434;9.116;2023-04-01T14:13:00;99137.84;;;22.27;21.23
59971;BME280;45825;45.434;9.116;2023-04-01T14:15:42;99135.50;;;22.17;21.48
59971;BME280;45825;45.434;9.116;2023-04-01T14:23:35;99117.88;;;23.45;20.98
59971;BME280;45825;45.434;9.116;2023-04-01T14:26:30;99114.88;;;24.04;21.05
59971;BME280;45825;45.434;9.116;2023-04-01T14:29:29;99113.84;;;23.27;20.28
59971;BME280;45825;45.434;9.116;2023-04-01T14:32:03;99094.91;;;23.78;20.32
59971;BME280;45825;45.434;9.116;2023-04-01T14:34:45;99088.25;;;24.16;19.92
59971;BME280;45825;45.434;9.116;2023-04-01T14:37:36;99083.31;;;24.26;19.83
59971;BME280;45825;45.434;9.116;2023-04-01T14:40:20;99087.28;;;24.44;19.43
59971;BME280;45825;45.434;9.116;2023-04-01T14:43:10;99075.72;;;24.50;19.49
59971;BME280;45825;45.434;9.116;2023-04-01T14:51:16;99076.47;;;24.10;20.48
59971;BME280;45825;45.434;9.116;2023-04-01T14:57:03;99065.09;;;23.59;20.19
59971;BME280;45825;45.434;9.116;2023-04-01T14:59:29;99064.53;;;23.00;20.96
59971;BME280;45825;45.434;9.116;2023-04-01T15:05:07;99053.22;;;23.05;20.99
59971;BME280;45825;45.434;9.116;2023-04-01T15:07:50;99060.75;;;22.94;21.03
59971;BME280;45825;45.434;9.116;2023-04-01T15:10:48;99061.94;;;22.41;21.19
59971;BME280;45825;45.434;9.116;2023-04-01T15:13:21;99054.41;;;22.08;21.61
59971;BME280;45825;45.434;9.116;2023-04-01T15:16:18;99064.78;;;22.11;21.94
59971;BME280;45825;45.434;9.116;2023-04-01T15:21:42;99056.78;;;21.96;21.57
59971;BME280;45825;45.434;9.116;2023-04-01T15:29:33;99036.34;;;21.73;21.45
59971;BME280;45825;45.434;9.116;2023-04-01T15:32:56;99018.56;;;21.20;20.78
59971;BME280;45825;45.434;9.116;2023-04-01T15:35:27;99027.00;;;21.54;21.34
59971;BME280;45825;45.434;9.116;2023-04-01T15:38:02;99029.41;;;21.49;21.16
59971;BME280;45825;45.434;9.116;2023-04-01T15:40:49;99024.78;;;21.73;21.47
59971;BME280;45825;45.434;9.116;2023-04-01T15:43:41;99022.84;;;21.67;21.39
59971;BME280;45825;45.434;9.116;2023-04-01T15:46:48;99027.06;;;21.61;21.37
59971;BME280;45825;45.434;9.116;2023-04-01T15:52:03;99025.09;;;21.18;21.04
59971;BME280;45825;45.434;9.116;2023-04-01T15:55:00;99019.19;;;21.07;22.60
59971;BME280;45825;45.434;9.116;2023-04-01T16:03:28;99018.25;;;21.00;22.36
59971;BME280;45825;45.434;9.116;2023-04-01T16:11:40;99022.03;;;21.06;21.02
59971;BME280;45825;45.434;9.116;2023-04-01T16:17:08;99013.22;;;21.05;20.74
59971;BME280;45825;45.434;9.116;2023-04-01T16:19:52;99008.97;;;21.11;21.45
59971;BME280;45825;45.434;9.116;2023-04-01T16:22:32;99006.00;;;21.21;21.60
59971;BME280;45825;45.434;9.116;2023-04-01T16:28:03;99000.41;;;20.77;20.93
59971;BME280;45825;45.434;9.116;2023-04-01T16:30:55;99008.75;;;20.44;21.13
59971;BME280;45825;45.434;9.116;2023-04-01T16:33:46;99007.41;;;20.25;20.67
59971;BME280;45825;45.434;9.116;2023-04-01T16:36:28;99003.41;;;20.21;21.04
59971;BME280;45825;45.434;9.116;2023-04-01T16:39:27;99002.16;;;20.08;20.26
59971;BME280;45825;45.434;9.116;2023-04-01T16:44:22;99009.88;;;20.03;19.74
59971;BME280;45825;45.434;9.116;2023-04-01T16:46:52;99007.75;;;19.99;19.49
59971;BME280;45825;45.434;9.116;2023-04-01T16:49:29;99012.91;;;20.00;19.98
59971;BME280;45825;45.434;9.116;2023-04-01T16:54:42;99010.59;;;19.97;20.90
59971;BME280;45825;45.434;9.116;2023-04-01T17:02:16;99013.38;;;19.72;20.99
59971;BME280;45825;45.434;9.116;2023-04-01T17:05:08;99006.88;;;19.75;21.47
59971;BME280;45825;45.434;9.116;2023-04-01T17:07:49;99004.88;;;19.68;23.32
59971;BME280;45825;45.434;9.116;2023-04-01T17:10:42;99007.91;;;19.65;21.72
59971;BME280;45825;45.434;9.116;2023-04-01T17:16:07;99006.94;;;19.58;22.35
59971;BME280;45825;45.434;9.116;2023-04-01T17:27:16;99008.56;;;19.36;23.34
59971;BME280;45825;45.434;9.116;2023-04-01T17:32:45;99010.59;;;19.25;23.65
59971;BME280;45825;45.434;9.116;2023-04-01T17:35:34;99008.44;;;19.21;23.48
59971;BME280;45825;45.434;9.116;2023-04-01T17:45:57;99008.66;;;18.86;23.80
59971;BME280;45825;45.434;9.116;2023-04-01T17:48:38;99009.66;;;18.77;23.83
59971;BME280;45825;45.434;9.116;2023-04-01T17:51:34;99011.03;;;18.73;23.75
59971;BME280;45825;45.434;9.116;2023-04-01T17:57:02;99005.34;;;18.67;24.15
59971;BME280;45825;45.434;9.116;2023-04-01T17:59:40;99006.88;;;18.53;24.13
59971;BME280;45825;45.434;9.116;2023-04-01T18:05:30;99011.03;;;18.56;24.79
59971;BME280;45825;45.434;9.116;2023-04-01T18:21:12;99026.84;;;18.41;27.07
59971;BME280;45825;45.434;9.116;2023-04-01T18:24:10;99020.84;;;18.31;27.37
59971;BME280;45825;45.434;9.116;2023-04-01T18:26:42;99018.50;;;18.27;27.35
59971;BME280;45825;45.434;9.116;2023-04-01T18:35:02;99027.81;;;18.07;28.55
59971;BME280;45825;45.434;9.116;2023-04-01T18:37:43;99027.28;;;18.03;27.98
59971;BME280;45825;45.434;9.116;2023-04-01T18:43:02;99036.91;;;17.96;28.76
59971;BME280;45825;45.434;9.116;2023-04-01T18:45:43;99039.41;;;17.97;28.50
59971;BME280;45825;45.434;9.116;2023-04-01T18:51:26;99046.91;;;17.94;29.11
59971;BME280;45825;45.434;9.116;2023-04-01T18:54:06;99058.84;;;17.90;29.57
59971;BME280;45825;45.434;9.116;2023-04-01T18:56:42;99061.47;;;17.81;29.58
59971;BME280;45825;45.434;9.116;2023-04-01T19:01:56;99059.81;;;17.72;28.41
59971;BME280;45825;45.434;9.116;2023-04-01T19:04:38;99068.25;;;17.76;28.53
59971;BME280;45825;45.434;9.116;2023-04-01T19:10:13;99066.28;;;17.69;28.25
59971;BME280;45825;45.434;9.116;2023-04-01T19:12:43;99065.09;;;17.64;28.49
59971;BME280;45825;45.434;9.116;2023-04-01T19:15:30;99055.41;;;17.54;28.45
59971;BME280;45825;45.434;9.116;2023-04-01T19:21:04;99068.84;;;17.53;28.04
59971;BME280;45825;45.434;9.116;2023-04-01T19:30:21;99064.31;;;17.45;29.05
59971;BME280;45825;45.434;9.116;2023-04-01T19:45:51;99087.19;;;17.29;28.35
59971;BME280;45825;45.434;9.116;2023-04-01T19:54:04;99100.00;;;17.08;28.12
59971;BME280;45825;45.434;9.116;2023-04-01T19:57:06;99113.34;;;17.16;29.08
59971;BME280;45825;45.434;9.116;2023-04-01T20:02:33;99125.41;;;16.92;29.41
59971;BME280;45825;45.434;9.116;2023-04-01T20:05:45;99135.69;;;16.69;29.35
59971;BME280;45825;45.434;9.116;2023-04-01T20:08:38;99130.84;;;16.64;30.10
59971;BME280;45825;45.434;9.116;2023-04-01T20:16:59;99141.38;;;16.74;29.62
59971;BME280;45825;45.434;9.116;2023-04-01T20:19:52;99132.19;;;16.68;29.42
59971;BME280;45825;45.434;9.116;2023-04-01T20:22:24;99129.91;;;16.73;29.71
59971;BME280;45825;45.434;9.116;2023-04-01T20:24:59;99135.53;;;16.70;29.68
59971;BME280;45825;45.434;9.116;2023-04-01T20:27:32;99128.41;;;16.71;29.26